createdAt,value
2018-09-21T00:00:14.303Z,20.20
2018-09-21T00:03:17.418Z,20.20
2018-09-21T00:06:20.876Z,20.20
2018-09-21T00:09:23.963Z,20.20
2018-09-21T00:12:27.057Z,20.10
2018-09-21T00:15:30.141Z,20.10
2018-09-21T00:18:33.233Z,20.10
2018-09-21T00:21:36.385Z,20.10
2018-09-21T00:24:39.477Z,20.10
2018-09-21T00:27:42.569Z,20.10
2018-09-21T00:30:45.665Z,20.10
2018-09-21T00:33:48.769Z,20.00
2018-09-21T00:36:51.841Z,20.00
2018-09-21T00:39:54.930Z,20.00
2018-09-21T00:42:58.270Z,20.00
2018-09-21T00:46:01.458Z,20.00
2018-09-21T00:49:04.718Z,20.00
2018-09-21T00:52:07.810Z,20.10
2018-09-21T00:55:10.926Z,20.10
2018-09-21T00:58:14.000Z,20.10
2018-09-21T01:01:17.106Z,20.00
2018-09-21T01:04:20.221Z,20.10
2018-09-21T01:07:23.306Z,20.10
2018-09-21T01:10:26.386Z,20.00
2018-09-21T01:13:29.446Z,20.00
2018-09-21T01:16:32.522Z,20.00
2018-09-21T01:19:35.641Z,20.00
2018-09-21T01:22:38.713Z,20.00
2018-09-21T01:25:41.811Z,20.00
2018-09-21T01:28:44.941Z,19.90
2018-09-21T01:31:48.077Z,19.90
2018-09-21T01:34:51.213Z,19.80
2018-09-21T01:37:54.321Z,19.80
2018-09-21T01:40:57.389Z,19.80
2018-09-21T01:44:00.481Z,19.80
2018-09-21T01:47:03.562Z,19.70
2018-09-21T01:50:06.693Z,19.70
2018-09-21T01:53:09.814Z,19.70
2018-09-21T01:56:12.893Z,19.70
2018-09-21T01:59:15.977Z,19.70
2018-09-21T02:02:19.084Z,19.70
2018-09-21T02:05:22.202Z,19.70
2018-09-21T02:08:25.324Z,19.70
2018-09-21T02:11:28.522Z,19.70
2018-09-21T02:14:31.637Z,19.70
2018-09-21T02:17:34.815Z,19.70
2018-09-21T02:20:37.885Z,19.70
2018-09-21T02:23:40.967Z,19.70
2018-09-21T02:26:44.048Z,19.70
2018-09-21T02:29:47.145Z,19.70
2018-09-21T02:32:50.229Z,19.80
2018-09-21T02:35:53.322Z,19.80
2018-09-21T02:38:56.406Z,19.80
2018-09-21T02:41:59.547Z,19.80
2018-09-21T02:45:02.684Z,19.80
2018-09-21T02:48:06.310Z,19.80
2018-09-21T02:51:09.392Z,19.80
2018-09-21T02:54:12.509Z,19.80
2018-09-21T02:57:15.591Z,19.80
2018-09-21T03:00:18.754Z,19.80
2018-09-21T03:03:21.826Z,19.70
2018-09-21T03:06:24.928Z,19.70
2018-09-21T03:09:28.051Z,19.70
2018-09-21T03:12:31.145Z,19.60
2018-09-21T03:15:34.237Z,19.70
2018-09-21T03:18:37.330Z,19.70
2018-09-21T03:21:40.425Z,19.70
2018-09-21T03:24:43.535Z,19.70
2018-09-21T03:27:46.632Z,19.70
2018-09-21T03:30:50.315Z,19.70
2018-09-21T03:33:53.419Z,19.70
2018-09-21T03:36:56.512Z,19.70
2018-09-21T03:39:59.630Z,19.70
2018-09-21T03:43:02.717Z,19.70
2018-09-21T03:46:06.013Z,19.70
2018-09-21T03:49:09.105Z,19.70
2018-09-21T03:52:12.253Z,19.70
2018-09-21T03:55:15.341Z,19.60
2018-09-21T03:58:18.483Z,19.60
2018-09-21T04:01:21.597Z,19.60
2018-09-21T04:04:24.694Z,19.60
2018-09-21T04:07:27.798Z,19.70
2018-09-21T04:10:30.886Z,19.70
2018-09-21T04:13:33.974Z,19.70
2018-09-21T04:16:37.073Z,19.80
2018-09-21T04:19:40.196Z,19.80
2018-09-21T04:22:47.929Z,19.90
2018-09-21T04:25:51.050Z,19.90
2018-09-21T04:28:54.136Z,19.90
2018-09-21T04:31:57.229Z,20.00
2018-09-21T04:35:00.329Z,20.00
2018-09-21T04:38:03.445Z,20.00
2018-09-21T04:41:06.702Z,20.00
2018-09-21T04:44:09.974Z,20.00
2018-09-21T04:47:13.068Z,20.00
2018-09-21T04:50:16.565Z,20.00
2018-09-21T04:53:19.635Z,20.00
2018-09-21T04:56:22.766Z,20.00
2018-09-21T04:59:25.837Z,20.00
2018-09-21T05:02:28.962Z,20.00
2018-09-21T05:05:32.049Z,20.00
2018-09-21T05:08:35.167Z,20.10
2018-09-21T05:11:38.289Z,20.00
2018-09-21T05:14:41.409Z,20.00
2018-09-21T05:17:44.485Z,20.00
2018-09-21T05:20:47.638Z,20.00
2018-09-21T05:23:50.741Z,20.00
2018-09-21T05:26:53.888Z,20.00
2018-09-21T05:29:57.002Z,20.00
2018-09-21T05:33:00.081Z,20.00
2018-09-21T05:36:03.205Z,20.10
2018-09-21T05:39:08.812Z,20.10
2018-09-21T05:42:11.941Z,20.10
2018-09-21T05:45:15.017Z,20.20
2018-09-21T05:48:18.140Z,20.60
2018-09-21T05:51:21.298Z,21.30
2018-09-21T05:54:24.356Z,21.90
2018-09-21T05:57:27.473Z,22.30
2018-09-21T06:00:30.553Z,22.20
2018-09-21T06:03:33.685Z,21.90
2018-09-21T06:06:36.793Z,21.70
2018-09-21T06:09:39.900Z,21.70
2018-09-21T06:12:43.015Z,22.10
2018-09-21T06:15:46.139Z,22.70
2018-09-21T06:18:49.247Z,23.60
2018-09-21T06:21:52.466Z,23.90
2018-09-21T06:24:55.558Z,23.50
2018-09-21T06:28:05.161Z,23.20
2018-09-21T06:31:08.280Z,23.40
2018-09-21T06:34:24.084Z,24.60
2018-09-21T06:37:27.169Z,25.70
2018-09-21T06:40:30.273Z,27.00
2018-09-21T06:43:33.401Z,27.80
2018-09-21T06:46:36.492Z,28.30
2018-09-21T06:49:39.592Z,29.10
2018-09-21T06:52:42.681Z,29.70
2018-09-21T06:55:45.784Z,30.40
2018-09-21T06:58:52.277Z,30.60
2018-09-21T07:01:55.455Z,30.50
2018-09-21T07:05:04.045Z,30.30
2018-09-21T07:08:07.125Z,29.90
2018-09-21T07:11:10.228Z,29.70
2018-09-21T07:14:13.348Z,29.90
2018-09-21T07:17:16.457Z,29.60
2018-09-21T07:20:19.700Z,29.60
2018-09-21T07:23:22.888Z,30.00
2018-09-21T07:26:26.018Z,30.20
2018-09-21T07:29:39.757Z,29.90
2018-09-21T07:32:42.877Z,29.10
2018-09-21T07:35:46.038Z,28.60
2018-09-21T07:38:54.441Z,28.20
2018-09-21T07:41:57.566Z,27.80
2018-09-21T07:45:00.696Z,27.40
2018-09-21T07:48:03.793Z,27.10
2018-09-21T07:51:06.973Z,27.20
2018-09-21T07:54:10.186Z,27.50
2018-09-21T07:57:13.282Z,27.60
2018-09-21T08:00:16.394Z,27.80
2018-09-21T08:03:19.510Z,28.10
2018-09-21T08:06:22.662Z,28.10
2018-09-21T08:09:25.730Z,28.50
2018-09-21T08:12:29.250Z,29.00
2018-09-21T08:15:32.339Z,29.60
2018-09-21T08:18:35.507Z,29.20
2018-09-21T08:21:38.613Z,28.50
2018-09-21T08:24:41.677Z,28.00
2018-09-21T08:27:44.896Z,27.50
2018-09-21T08:30:47.981Z,26.90
2018-09-21T08:33:51.818Z,26.40
2018-09-21T08:36:54.959Z,26.00
2018-09-21T08:39:58.119Z,25.80
2018-09-21T08:43:01.226Z,25.40
2018-09-21T08:46:04.362Z,25.20
2018-09-21T08:49:07.437Z,25.00
2018-09-21T08:52:10.600Z,24.90
2018-09-21T08:55:13.725Z,24.90
2018-09-21T08:58:16.814Z,24.70
2018-09-21T09:01:20.087Z,24.50
2018-09-21T09:04:23.217Z,24.50
2018-09-21T09:07:26.345Z,24.50
2018-09-21T09:10:29.500Z,24.60
2018-09-21T09:13:32.686Z,24.50
2018-09-21T09:16:35.947Z,24.50
2018-09-21T09:19:39.056Z,24.60
2018-09-21T09:22:42.197Z,24.80
2018-09-21T09:25:45.309Z,25.00
2018-09-21T09:28:52.174Z,25.30
2018-09-21T09:31:59.589Z,25.40
2018-09-21T09:35:11.879Z,25.30
2018-09-21T09:38:21.678Z,25.30
2018-09-21T09:41:24.789Z,25.30
2018-09-21T09:44:29.147Z,25.40
2018-09-21T09:47:32.331Z,25.30
2018-09-21T09:50:35.454Z,25.20
2018-09-21T09:53:38.566Z,25.20
2018-09-21T09:56:41.658Z,25.10
2018-09-21T09:59:44.736Z,25.10
2018-09-21T10:02:47.841Z,24.80
2018-09-21T10:05:50.906Z,24.80
2018-09-21T10:08:54.049Z,24.70
2018-09-21T10:11:57.189Z,24.60
2018-09-21T10:15:00.328Z,24.60
2018-09-21T10:18:03.730Z,24.60
2018-09-21T10:21:12.759Z,24.50
2018-09-21T10:24:16.041Z,24.70
2018-09-21T10:27:19.268Z,24.70
2018-09-21T10:30:22.365Z,24.80
2018-09-21T10:33:25.539Z,24.90
2018-09-21T10:36:29.513Z,25.10
2018-09-21T10:39:32.550Z,25.30
2018-09-21T10:42:35.750Z,25.30
2018-09-21T10:45:38.789Z,25.00
2018-09-21T10:48:41.886Z,24.90
2018-09-21T10:51:45.128Z,24.60
2018-09-21T10:54:48.247Z,24.40
2018-09-21T10:57:51.331Z,24.30
2018-09-21T11:00:54.436Z,24.30
2018-09-21T11:03:57.528Z,24.40
2018-09-21T11:07:00.875Z,24.30
2018-09-21T11:10:03.953Z,24.10
2018-09-21T11:13:07.234Z,24.10
2018-09-21T11:16:10.245Z,23.90
2018-09-21T11:19:13.352Z,23.70
2018-09-21T11:22:16.488Z,23.80
2018-09-21T11:25:19.584Z,23.90
2018-09-21T11:28:22.819Z,23.80
2018-09-21T11:31:25.885Z,23.80
2018-09-21T11:34:29.005Z,23.70
2018-09-21T11:37:32.109Z,23.50
2018-09-21T11:40:35.254Z,23.10
2018-09-21T11:43:38.400Z,22.90
2018-09-21T11:46:41.587Z,22.70
2018-09-21T11:49:44.601Z,22.60
2018-09-21T11:52:47.728Z,22.50
2018-09-21T11:55:50.820Z,22.50
2018-09-21T11:58:53.965Z,22.40
2018-09-21T12:01:57.169Z,22.10
2018-09-21T12:05:00.302Z,21.30
2018-09-21T12:08:03.397Z,19.80
2018-09-21T12:11:18.632Z,18.60
2018-09-21T12:14:21.777Z,17.70
2018-09-21T12:17:24.864Z,16.90
2018-09-21T12:20:27.977Z,16.40
2018-09-21T12:23:31.096Z,16.10
2018-09-21T12:26:34.194Z,15.90
2018-09-21T12:29:37.336Z,15.60
2018-09-21T12:32:40.450Z,15.30
2018-09-21T12:35:43.574Z,15.20
2018-09-21T12:38:46.728Z,15.10
2018-09-21T12:41:49.779Z,15.10
2018-09-21T12:44:52.889Z,15.00
2018-09-21T12:47:55.969Z,15.00
2018-09-21T12:50:59.162Z,15.00
2018-09-21T12:54:02.246Z,15.10
2018-09-21T12:57:05.470Z,15.20
2018-09-21T13:00:09.492Z,15.20
2018-09-21T13:03:12.621Z,15.20
2018-09-21T13:06:15.760Z,15.10
2018-09-21T13:09:18.992Z,15.20
2018-09-21T13:15:31.829Z,15.20
2018-09-21T13:18:34.889Z,15.40
2018-09-21T13:21:38.050Z,15.30
2018-09-21T13:24:41.145Z,15.30
2018-09-21T13:27:44.285Z,15.20
2018-09-21T13:30:47.453Z,15.20
2018-09-21T13:33:50.579Z,15.30
2018-09-21T13:36:53.694Z,15.30
2018-09-21T13:39:56.861Z,15.20
2018-09-21T13:42:59.945Z,15.00
2018-09-21T13:46:03.089Z,14.80
2018-09-21T13:49:06.168Z,14.60
2018-09-21T13:52:09.266Z,14.40
2018-09-21T13:55:12.375Z,14.30
2018-09-21T13:58:15.482Z,14.40
2018-09-21T14:01:18.590Z,14.40
2018-09-21T14:04:21.838Z,14.40
2018-09-21T14:07:24.985Z,14.40
2018-09-21T14:10:28.077Z,14.60
2018-09-21T14:13:31.238Z,14.70
2018-09-21T14:16:34.327Z,14.80
2018-09-21T14:19:37.513Z,14.80
2018-09-21T14:22:40.604Z,14.80
2018-09-21T14:25:43.682Z,14.90
2018-09-21T14:28:46.855Z,15.00
2018-09-21T14:31:49.949Z,15.00
2018-09-21T14:34:53.096Z,15.00
2018-09-21T14:37:56.187Z,15.00
2018-09-21T14:40:59.423Z,15.00
2018-09-21T14:44:02.636Z,15.10
2018-09-21T14:47:05.901Z,15.00
2018-09-21T14:50:09.289Z,15.00
2018-09-21T14:53:12.435Z,15.20
2018-09-21T14:56:15.509Z,15.40
2018-09-21T14:59:18.602Z,15.50
2018-09-21T15:02:21.753Z,15.60
2018-09-21T15:05:24.833Z,15.40
2018-09-21T15:08:27.937Z,15.50
2018-09-21T15:11:31.745Z,15.50
2018-09-21T15:14:34.813Z,15.50
2018-09-21T15:17:37.888Z,15.40
2018-09-21T15:20:40.973Z,15.40
2018-09-21T15:23:44.068Z,15.40
2018-09-21T15:26:47.231Z,15.40
2018-09-21T15:29:50.289Z,15.30
2018-09-21T15:32:53.405Z,15.40
2018-09-21T15:35:56.490Z,15.00
2018-09-21T15:38:59.601Z,14.80
2018-09-21T15:42:02.717Z,14.80
2018-09-21T15:45:05.822Z,14.70
2018-09-21T15:48:08.946Z,14.60
2018-09-21T15:51:12.060Z,14.60
2018-09-21T15:54:15.125Z,14.60
2018-09-21T15:57:18.270Z,14.60
2018-09-21T16:00:21.333Z,14.70
2018-09-21T16:03:24.439Z,14.70
2018-09-21T16:06:31.950Z,14.70
2018-09-21T16:09:35.080Z,14.70
2018-09-21T16:12:38.224Z,14.80
2018-09-21T16:15:41.326Z,14.70
2018-09-21T16:18:44.419Z,14.70
2018-09-21T16:21:47.507Z,14.60
2018-09-21T16:24:50.597Z,14.50
2018-09-21T16:27:53.680Z,14.50
2018-09-21T16:30:56.779Z,14.40
2018-09-21T16:33:59.895Z,14.20
2018-09-21T16:37:02.998Z,14.10
2018-09-21T16:40:06.126Z,14.00
2018-09-21T16:43:09.181Z,14.00
2018-09-21T16:46:12.292Z,14.20
2018-09-21T16:49:15.523Z,14.20
2018-09-21T16:52:18.667Z,14.20
2018-09-21T16:55:21.755Z,14.20
2018-09-21T16:58:25.136Z,14.20
2018-09-21T17:01:28.640Z,14.20
2018-09-21T17:04:31.776Z,14.20
2018-09-21T17:07:34.814Z,14.30
2018-09-21T17:10:37.909Z,14.20
2018-09-21T17:13:40.986Z,14.30
2018-09-21T17:16:44.118Z,14.20
2018-09-21T17:19:47.236Z,14.10
2018-09-21T17:22:50.323Z,14.10
2018-09-21T17:25:53.462Z,14.10
2018-09-21T17:28:56.642Z,14.10
2018-09-21T17:31:59.872Z,14.00
2018-09-21T17:35:02.970Z,13.80
2018-09-21T17:38:06.093Z,13.70
2018-09-21T17:41:09.192Z,13.60
2018-09-21T17:44:12.317Z,13.50
2018-09-21T17:47:15.447Z,13.30
2018-09-21T17:50:18.558Z,13.20
2018-09-21T17:53:21.779Z,13.10
2018-09-21T17:56:24.931Z,13.10
2018-09-21T17:59:28.062Z,12.90
2018-09-21T18:02:31.216Z,12.90
2018-09-21T18:05:34.317Z,12.70
2018-09-21T18:08:37.413Z,12.60
2018-09-21T18:11:40.569Z,12.50
2018-09-21T18:14:43.889Z,12.50
2018-09-21T18:17:47.064Z,12.50
2018-09-21T18:20:50.171Z,12.40
2018-09-21T18:23:53.289Z,12.30
2018-09-21T18:26:56.412Z,12.20
2018-09-21T18:29:59.509Z,12.30
2018-09-21T18:33:02.617Z,12.30
2018-09-21T18:36:05.757Z,12.30
2018-09-21T18:39:08.890Z,12.30
2018-09-21T18:42:11.965Z,12.30
2018-09-21T18:45:15.102Z,12.30
2018-09-21T18:48:18.391Z,12.30
2018-09-21T18:51:21.477Z,12.30
2018-09-21T18:54:24.607Z,12.20
2018-09-21T18:57:27.712Z,12.20
2018-09-21T19:00:30.901Z,12.00
2018-09-21T19:03:34.245Z,12.00
2018-09-21T19:06:37.391Z,11.90
2018-09-21T19:09:40.458Z,11.80
2018-09-21T19:12:43.595Z,11.80
2018-09-21T19:15:46.670Z,11.80
2018-09-21T19:18:49.817Z,11.70
2018-09-21T19:21:52.853Z,11.70
2018-09-21T19:24:56.005Z,11.60
2018-09-21T19:27:59.060Z,11.60
2018-09-21T19:31:02.173Z,11.50
2018-09-21T19:34:05.321Z,11.60
2018-09-21T19:37:08.533Z,11.60
2018-09-21T19:40:11.650Z,11.60
2018-09-21T19:43:14.916Z,11.60
2018-09-21T19:46:17.991Z,11.60
2018-09-21T19:49:21.070Z,11.60
2018-09-21T19:52:24.264Z,11.70
2018-09-21T19:55:27.361Z,11.70
2018-09-21T19:58:30.458Z,11.60
2018-09-21T20:01:33.640Z,11.60
2018-09-21T20:04:36.724Z,11.50
2018-09-21T20:07:39.815Z,11.40
2018-09-21T20:10:42.923Z,11.30
2018-09-21T20:13:46.067Z,11.20
2018-09-21T20:16:49.171Z,11.20
2018-09-21T20:19:52.294Z,11.20
2018-09-21T20:22:55.377Z,11.20
2018-09-21T20:25:58.488Z,11.10
2018-09-21T20:29:01.589Z,11.10
2018-09-21T20:32:10.077Z,11.20
2018-09-21T20:35:13.173Z,11.20
2018-09-21T20:38:16.377Z,11.20
2018-09-21T20:41:19.565Z,11.20
2018-09-21T20:44:22.690Z,11.30
2018-09-21T20:47:25.800Z,11.30
2018-09-21T20:50:28.897Z,11.30
2018-09-21T20:53:38.419Z,11.30
2018-09-21T20:56:41.623Z,11.30
2018-09-21T20:59:44.729Z,11.40
2018-09-21T21:02:47.874Z,11.40
2018-09-21T21:05:50.969Z,11.40
2018-09-21T21:08:54.084Z,11.30
2018-09-21T21:11:57.186Z,11.30
2018-09-21T21:15:00.341Z,11.30
2018-09-21T21:18:03.469Z,11.20
2018-09-21T21:21:06.569Z,11.10
2018-09-21T21:24:09.712Z,11.10
2018-09-21T21:27:12.836Z,11.10
2018-09-21T21:30:16.236Z,11.20
2018-09-21T21:33:19.383Z,11.30
2018-09-21T21:36:22.476Z,11.30
2018-09-21T21:39:25.583Z,11.50
2018-09-21T21:42:28.662Z,11.50
2018-09-21T21:45:31.745Z,11.40
2018-09-21T21:48:34.869Z,11.40
2018-09-21T21:51:37.945Z,11.40
2018-09-21T21:54:41.076Z,11.40
2018-09-21T21:57:44.165Z,11.40
2018-09-21T22:00:52.681Z,11.50
2018-09-21T22:03:56.002Z,11.40
2018-09-21T22:06:59.098Z,11.30
2018-09-21T22:10:03.605Z,11.40
2018-09-21T22:13:12.038Z,11.40
2018-09-21T22:16:15.108Z,11.30
2018-09-21T22:19:18.189Z,11.20
2018-09-21T22:22:21.258Z,11.10
2018-09-21T22:25:24.332Z,11.00
2018-09-21T22:28:27.424Z,11.00
2018-09-21T22:31:30.877Z,11.00
2018-09-21T22:34:33.969Z,10.90
2018-09-21T22:37:37.093Z,11.00
2018-09-21T22:40:40.195Z,11.00
2018-09-21T22:43:43.333Z,11.00
2018-09-21T22:46:46.423Z,11.00
2018-09-21T22:49:49.515Z,11.00
2018-09-21T22:52:52.668Z,11.00
2018-09-21T22:55:55.784Z,11.20
2018-09-21T22:58:58.883Z,11.20
2018-09-21T23:02:02.001Z,11.20
2018-09-21T23:05:05.090Z,11.20
2018-09-21T23:08:08.230Z,11.20
2018-09-21T23:11:11.360Z,11.20
2018-09-21T23:14:14.441Z,11.20
2018-09-21T23:17:17.526Z,11.20
2018-09-21T23:20:20.621Z,11.10
2018-09-21T23:23:23.784Z,11.20
2018-09-21T23:26:26.891Z,11.20
2018-09-21T23:29:29.987Z,11.30
2018-09-21T23:32:33.097Z,11.30
2018-09-21T23:35:36.386Z,11.30
2018-09-21T23:38:39.498Z,11.30
2018-09-21T23:41:42.601Z,11.30
2018-09-21T23:44:45.673Z,11.40
2018-09-21T23:47:48.765Z,11.40
2018-09-21T23:50:51.872Z,11.50
2018-09-21T23:53:54.982Z,11.40
2018-09-21T23:56:58.069Z,11.30
